sensor_id;sensor_type;location;lat;lon;timestamp;P1;durP1;ratioP1;P2;durP2;ratioP2
25341;SDS011;13298;48.792;9.154;2023-08-12T00:00:19;7.10;;;3.50;;
25341;SDS011;13298;48.792;9.154;2023-08-12T00:02:45;4.43;;;3.20;;
25341;SDS011;13298;48.792;9.154;2023-08-12T00:05:11;3.95;;;3.15;;
25341;SDS011;13298;48.792;9.154;2023-08-12T00:07:38;4.45;;;3.35;;
25341;SDS011;13298;48.792;9.154;2023-08-12T00:10:08;3.75;;;3.33;;
25341;SDS011;13298;48.792;9.154;2023-08-12T00:12:35;4.00;;;3.17;;
25341;SDS011;13298;48.792;9.154;2023-08-12T00:15:02;3.70;;;3.40;;
25341;SDS011;13298;48.792;9.154;2023-08-12T00:17:31;4.25;;;3.40;;
25341;SDS011;13298;48.792;9.154;2023-08-12T00:19:57;4.13;;;3.53;;
25341;SDS011;13298;48.792;9.154;2023-08-12T00:22:23;3.65;;;3.28;;
25341;SDS011;13298;48.792;9.154;2023-08-12T00:24:49;3.83;;;3.40;;
25341;SDS011;13298;48.792;9.154;2023-08-12T00:27:16;5.40;;;4.00;;
25341;SDS011;13298;48.792;9.154;2023-08-12T00:29:42;3.95;;;3.50;;
25341;SDS011;13298;48.792;9.154;2023-08-12T00:32:08;4.72;;;3.83;;
25341;SDS011;13298;48.792;9.154;2023-08-12T00:34:34;5.13;;;3.70;;
25341;SDS011;13298;48.792;9.154;2023-08-12T00:37:00;5.07;;;3.78;;
25341;SDS011;13298;48.792;9.154;2023-08-12T00:39:26;4.20;;;3.72;;
25341;SDS011;13298;48.792;9.154;2023-08-12T00:41:51;5.43;;;3.88;;
25341;SDS011;13298;48.792;9.154;2023-08-12T00:44:17;5.55;;;4.10;;
25341;SDS011;13298;48.792;9.154;2023-08-12T00:46:43;5.30;;;4.25;;
25341;SDS011;13298;48.792;9.154;2023-08-12T00:49:09;7.22;;;4.10;;
25341;SDS011;13298;48.792;9.154;2023-08-12T00:51:37;6.22;;;4.55;;
25341;SDS011;13298;48.792;9.154;2023-08-12T00:54:06;5.22;;;3.60;;
25341;SDS011;13298;48.792;9.154;2023-08-12T00:56:33;6.45;;;4.60;;
25341;SDS011;13298;48.792;9.154;2023-08-12T00:59:00;6.43;;;4.07;;
25341;SDS011;13298;48.792;9.154;2023-08-12T01:01:30;7.00;;;3.88;;
25341;SDS011;13298;48.792;9.154;2023-08-12T01:03:56;5.32;;;4.10;;
25341;SDS011;13298;48.792;9.154;2023-08-12T01:06:22;5.47;;;3.92;;
25341;SDS011;13298;48.792;9.154;2023-08-12T01:08:48;4.82;;;3.85;;
25341;SDS011;13298;48.792;9.154;2023-08-12T01:11:22;6.38;;;4.35;;
25341;SDS011;13298;48.792;9.154;2023-08-12T01:13:59;6.05;;;3.92;;
25341;SDS011;13298;48.792;9.154;2023-08-12T01:16:49;7.70;;;4.85;;
25341;SDS011;13298;48.792;9.154;2023-08-12T01:19:38;5.70;;;4.70;;
25341;SDS011;13298;48.792;9.154;2023-08-12T01:22:06;6.78;;;4.97;;
25341;SDS011;13298;48.792;9.154;2023-08-12T01:24:35;5.32;;;4.45;;
25341;SDS011;13298;48.792;9.154;2023-08-12T01:27:04;5.93;;;4.30;;
25341;SDS011;13298;48.792;9.154;2023-08-12T01:29:31;8.18;;;4.32;;
25341;SDS011;13298;48.792;9.154;2023-08-12T01:32:02;5.35;;;4.40;;
25341;SDS011;13298;48.792;9.154;2023-08-12T01:34:44;5.32;;;3.90;;
25341;SDS011;13298;48.792;9.154;2023-08-12T01:37:17;5.55;;;4.10;;
25341;SDS011;13298;48.792;9.154;2023-08-12T01:39:53;5.25;;;4.50;;
25341;SDS011;13298;48.792;9.154;2023-08-12T01:42:20;5.13;;;3.95;;
25341;SDS011;13298;48.792;9.154;2023-08-12T01:44:46;6.80;;;4.70;;
25341;SDS011;13298;48.792;9.154;2023-08-12T01:47:13;5.50;;;4.10;;
25341;SDS011;13298;48.792;9.154;2023-08-12T01:49:38;4.55;;;4.13;;
25341;SDS011;13298;48.792;9.154;2023-08-12T01:52:04;5.05;;;3.90;;
25341;SDS011;13298;48.792;9.154;2023-08-12T01:54:30;4.88;;;3.55;;
25341;SDS011;13298;48.792;9.154;2023-08-12T01:57:02;4.32;;;3.60;;
25341;SDS011;13298;48.792;9.154;2023-08-12T01:59:33;5.00;;;4.05;;
25341;SDS011;13298;48.792;9.154;2023-08-12T02:01:59;4.75;;;3.92;;
25341;SDS011;13298;48.792;9.154;2023-08-12T02:04:25;4.85;;;3.80;;
25341;SDS011;13298;48.792;9.154;2023-08-12T02:06:52;4.95;;;3.70;;
25341;SDS011;13298;48.792;9.154;2023-08-12T02:09:18;5.03;;;3.80;;
25341;SDS011;13298;48.792;9.154;2023-08-12T02:11:44;5.30;;;4.13;;
25341;SDS011;13298;48.792;9.154;2023-08-12T02:14:09;5.10;;;3.85;;
25341;SDS011;13298;48.792;9.154;2023-08-12T02:16:36;5.13;;;4.05;;
25341;SDS011;13298;48.792;9.154;2023-08-12T02:19:01;4.90;;;3.88;;
25341;SDS011;13298;48.792;9.154;2023-08-12T02:21:27;5.32;;;4.00;;
25341;SDS011;13298;48.792;9.154;2023-08-12T02:23:53;5.32;;;4.05;;
25341;SDS011;13298;48.792;9.154;2023-08-12T02:26:18;5.47;;;4.05;;
25341;SDS011;13298;48.792;9.154;2023-08-12T02:28:44;5.30;;;4.28;;
25341;SDS011;13298;48.792;9.154;2023-08-12T02:31:10;5.32;;;3.97;;
25341;SDS011;13298;48.792;9.154;2023-08-12T02:33:35;6.30;;;4.07;;
25341;SDS011;13298;48.792;9.154;2023-08-12T02:36:01;4.93;;;3.75;;
25341;SDS011;13298;48.792;9.154;2023-08-12T02:38:27;5.25;;;4.40;;
25341;SDS011;13298;48.792;9.154;2023-08-12T02:40:53;4.47;;;4.03;;
25341;SDS011;13298;48.792;9.154;2023-08-12T02:43:19;4.70;;;3.78;;
25341;SDS011;13298;48.792;9.154;2023-08-12T02:45:44;4.85;;;3.95;;
25341;SDS011;13298;48.792;9.154;2023-08-12T02:48:10;5.38;;;3.97;;
25341;SDS011;13298;48.792;9.154;2023-08-12T02:50:36;4.35;;;3.92;;
25341;SDS011;13298;48.792;9.154;2023-08-12T02:53:03;5.47;;;4.35;;
25341;SDS011;13298;48.792;9.154;2023-08-12T02:55:29;5.18;;;3.80;;
25341;SDS011;13298;48.792;9.154;2023-08-12T02:57:57;4.47;;;3.80;;
25341;SDS011;13298;48.792;9.154;2023-08-12T03:00:23;4.63;;;3.58;;
25341;SDS011;13298;48.792;9.154;2023-08-12T03:02:49;5.00;;;3.70;;
25341;SDS011;13298;48.792;9.154;2023-08-12T03:05:14;4.82;;;3.88;;
25341;SDS011;13298;48.792;9.154;2023-08-12T03:07:40;5.18;;;4.05;;
25341;SDS011;13298;48.792;9.154;2023-08-12T03:10:06;4.45;;;3.70;;
25341;SDS011;13298;48.792;9.154;2023-08-12T03:12:32;4.35;;;3.70;;
25341;SDS011;13298;48.792;9.154;2023-08-12T03:14:59;5.43;;;3.72;;
25341;SDS011;13298;48.792;9.154;2023-08-12T03:17:26;4.88;;;3.92;;
25341;SDS011;13298;48.792;9.154;2023-08-12T03:19:51;5.63;;;3.40;;
25341;SDS011;13298;48.792;9.154;2023-08-12T03:22:19;5.03;;;3.80;;
25341;SDS011;13298;48.792;9.154;2023-08-12T03:24:45;4.43;;;3.83;;
25341;SDS011;13298;48.792;9.154;2023-08-12T03:27:11;4.90;;;3.88;;
25341;SDS011;13298;48.792;9.154;2023-08-12T03:29:37;4.95;;;3.75;;
25341;SDS011;13298;48.792;9.154;2023-08-12T03:32:02;5.13;;;3.80;;
25341;SDS011;13298;48.792;9.154;2023-08-12T03:34:29;5.80;;;3.92;;
25341;SDS011;13298;48.792;9.154;2023-08-12T03:36:54;4.57;;;3.50;;
25341;SDS011;13298;48.792;9.154;2023-08-12T03:39:20;5.50;;;3.75;;
25341;SDS011;13298;48.792;9.154;2023-08-12T03:41:46;5.35;;;4.00;;
25341;SDS011;13298;48.792;9.154;2023-08-12T03:44:11;5.25;;;4.00;;
25341;SDS011;13298;48.792;9.154;2023-08-12T03:46:37;5.18;;;3.33;;
25341;SDS011;13298;48.792;9.154;2023-08-12T03:49:03;4.03;;;3.53;;
25341;SDS011;13298;48.792;9.154;2023-08-12T03:51:29;6.43;;;3.60;;
25341;SDS011;13298;48.792;9.154;2023-08-12T03:53:54;5.13;;;3.67;;
25341;SDS011;13298;48.792;9.154;2023-08-12T03:56:20;4.65;;;3.60;;
25341;SDS011;13298;48.792;9.154;2023-08-12T03:58:46;4.65;;;3.38;;
25341;SDS011;13298;48.792;9.154;2023-08-12T04:01:12;6.00;;;4.07;;
25341;SDS011;13298;48.792;9.154;2023-08-12T04:03:37;3.95;;;3.10;;
25341;SDS011;13298;48.792;9.154;2023-08-12T04:06:03;4.88;;;3.42;;
25341;SDS011;13298;48.792;9.154;2023-08-12T04:08:29;4.05;;;3.28;;
25341;SDS011;13298;48.792;9.154;2023-08-12T04:10:57;5.75;;;3.78;;
25341;SDS011;13298;48.792;9.154;2023-08-12T04:13:22;4.35;;;3.67;;
25341;SDS011;13298;48.792;9.154;2023-08-12T04:15:49;4.47;;;3.88;;
25341;SDS011;13298;48.792;9.154;2023-08-12T04:18:16;4.50;;;3.70;;
25341;SDS011;13298;48.792;9.154;2023-08-12T04:20:41;4.38;;;3.45;;
25341;SDS011;13298;48.792;9.154;2023-08-12T04:23:07;4.72;;;3.67;;
25341;SDS011;13298;48.792;9.154;2023-08-12T04:25:33;5.18;;;3.95;;
25341;SDS011;13298;48.792;9.154;2023-08-12T04:27:58;9.13;;;4.10;;
25341;SDS011;13298;48.792;9.154;2023-08-12T04:30:24;6.88;;;4.03;;
25341;SDS011;13298;48.792;9.154;2023-08-12T04:32:51;8.38;;;4.30;;
25341;SDS011;13298;48.792;9.154;2023-08-12T04:35:17;4.88;;;3.85;;
25341;SDS011;13298;48.792;9.154;2023-08-12T04:37:42;5.57;;;3.97;;
25341;SDS011;13298;48.792;9.154;2023-08-12T04:40:08;5.03;;;3.70;;
25341;SDS011;13298;48.792;9.154;2023-08-12T04:42:34;8.93;;;4.10;;
25341;SDS011;13298;48.792;9.154;2023-08-12T04:45:00;6.60;;;3.88;;
25341;SDS011;13298;48.792;9.154;2023-08-12T04:47:26;6.95;;;4.50;;
25341;SDS011;13298;48.792;9.154;2023-08-12T04:49:51;4.38;;;3.97;;
25341;SDS011;13298;48.792;9.154;2023-08-12T04:52:17;4.47;;;3.60;;
25341;SDS011;13298;48.792;9.154;2023-08-12T04:54:43;7.22;;;4.03;;
25341;SDS011;13298;48.792;9.154;2023-08-12T04:57:09;4.53;;;3.25;;
25341;SDS011;13298;48.792;9.154;2023-08-12T04:59:35;4.50;;;3.20;;
25341;SDS011;13298;48.792;9.154;2023-08-12T05:02:00;5.03;;;3.70;;
25341;SDS011;13298;48.792;9.154;2023-08-12T05:04:27;3.65;;;3.03;;
25341;SDS011;13298;48.792;9.154;2023-08-12T05:06:52;5.60;;;3.80;;
25341;SDS011;13298;48.792;9.154;2023-08-12T05:09:18;6.60;;;3.65;;
25341;SDS011;13298;48.792;9.154;2023-08-12T05:11:44;4.35;;;3.45;;
25341;SDS011;13298;48.792;9.154;2023-08-12T05:14:09;4.35;;;3.60;;
25341;SDS011;13298;48.792;9.154;2023-08-12T05:16:35;6.38;;;4.50;;
25341;SDS011;13298;48.792;9.154;2023-08-12T05:19:01;6.10;;;4.13;;
25341;SDS011;13298;48.792;9.154;2023-08-12T05:21:26;5.35;;;3.97;;
25341;SDS011;13298;48.792;9.154;2023-08-12T05:23:52;4.70;;;3.50;;
25341;SDS011;13298;48.792;9.154;2023-08-12T05:26:18;5.63;;;3.90;;
25341;SDS011;13298;48.792;9.154;2023-08-12T05:28:45;6.00;;;4.38;;
25341;SDS011;13298;48.792;9.154;2023-08-12T05:31:10;4.75;;;4.25;;
25341;SDS011;13298;48.792;9.154;2023-08-12T05:33:36;6.07;;;4.30;;
25341;SDS011;13298;48.792;9.154;2023-08-12T05:36:02;5.18;;;4.25;;
25341;SDS011;13298;48.792;9.154;2023-08-12T05:38:28;9.18;;;4.80;;
25341;SDS011;13298;48.792;9.154;2023-08-12T05:40:54;6.90;;;3.90;;
25341;SDS011;13298;48.792;9.154;2023-08-12T05:43:19;5.70;;;4.30;;
25341;SDS011;13298;48.792;9.154;2023-08-12T05:45:45;6.18;;;4.47;;
25341;SDS011;13298;48.792;9.154;2023-08-12T05:48:11;5.07;;;4.07;;
25341;SDS011;13298;48.792;9.154;2023-08-12T05:50:36;4.22;;;3.83;;
25341;SDS011;13298;48.792;9.154;2023-08-12T05:53:02;5.93;;;4.43;;
25341;SDS011;13298;48.792;9.154;2023-08-12T05:55:28;4.53;;;4.00;;
25341;SDS011;13298;48.792;9.154;2023-08-12T05:57:54;6.97;;;4.30;;
25341;SDS011;13298;48.792;9.154;2023-08-12T06:00:19;6.03;;;4.30;;
25341;SDS011;13298;48.792;9.154;2023-08-12T06:02:45;5.55;;;4.40;;
25341;SDS011;13298;48.792;9.154;2023-08-12T06:05:11;5.10;;;3.90;;
25341;SDS011;13298;48.792;9.154;2023-08-12T06:07:36;4.75;;;4.10;;
25341;SDS011;13298;48.792;9.154;2023-08-12T06:10:02;7.65;;;5.28;;
25341;SDS011;13298;48.792;9.154;2023-08-12T06:12:29;8.07;;;4.63;;
25341;SDS011;13298;48.792;9.154;2023-08-12T06:14:54;7.43;;;5.13;;
25341;SDS011;13298;48.792;9.154;2023-08-12T06:17:20;5.95;;;4.60;;
25341;SDS011;13298;48.792;9.154;2023-08-12T06:19:46;6.28;;;5.10;;
25341;SDS011;13298;48.792;9.154;2023-08-12T06:22:11;7.65;;;4.43;;
25341;SDS011;13298;48.792;9.154;2023-08-12T06:24:37;5.00;;;4.13;;
25341;SDS011;13298;48.792;9.154;2023-08-12T06:27:03;5.03;;;4.43;;
25341;SDS011;13298;48.792;9.154;2023-08-12T06:29:28;4.68;;;4.03;;
25341;SDS011;13298;48.792;9.154;2023-08-12T06:31:54;5.38;;;4.15;;
25341;SDS011;13298;48.792;9.154;2023-08-12T06:34:20;5.18;;;4.55;;
25341;SDS011;13298;48.792;9.154;2023-08-12T06:36:46;4.95;;;4.45;;
25341;SDS011;13298;48.792;9.154;2023-08-12T06:39:11;5.47;;;3.95;;
25341;SDS011;13298;48.792;9.154;2023-08-12T06:41:37;4.53;;;3.88;;
25341;SDS011;13298;48.792;9.154;2023-08-12T06:44:03;5.00;;;4.15;;
25341;SDS011;13298;48.792;9.154;2023-08-12T06:46:29;4.88;;;3.70;;
25341;SDS011;13298;48.792;9.154;2023-08-12T06:48:55;4.13;;;3.28;;
25341;SDS011;13298;48.792;9.154;2023-08-12T06:51:22;5.57;;;4.70;;
25341;SDS011;13298;48.792;9.154;2023-08-12T06:53:48;7.38;;;4.40;;
25341;SDS011;13298;48.792;9.154;2023-08-12T06:56:14;5.57;;;4.63;;
25341;SDS011;13298;48.792;9.154;2023-08-12T06:58:39;9.77;;;4.82;;
25341;SDS011;13298;48.792;9.154;2023-08-12T07:01:05;4.82;;;3.88;;
25341;SDS011;13298;48.792;9.154;2023-08-12T07:03:31;6.00;;;4.22;;
25341;SDS011;13298;48.792;9.154;2023-08-12T07:05:57;5.00;;;4.50;;
25341;SDS011;13298;48.792;9.154;2023-08-12T07:08:23;5.25;;;4.38;;
25341;SDS011;13298;48.792;9.154;2023-08-12T07:10:49;6.18;;;4.20;;
25341;SDS011;13298;48.792;9.154;2023-08-12T07:13:14;4.93;;;4.35;;
25341;SDS011;13298;48.792;9.154;2023-08-12T07:15:40;5.05;;;4.32;;
25341;SDS011;13298;48.792;9.154;2023-08-12T07:18:06;4.55;;;3.95;;
25341;SDS011;13298;48.792;9.154;2023-08-12T07:20:32;6.38;;;4.10;;
25341;SDS011;13298;48.792;9.154;2023-08-12T07:22:58;5.18;;;3.78;;
25341;SDS011;13298;48.792;9.154;2023-08-12T07:25:23;5.45;;;4.00;;
25341;SDS011;13298;48.792;9.154;2023-08-12T07:27:49;4.03;;;3.63;;
25341;SDS011;13298;48.792;9.154;2023-08-12T07:30:15;5.47;;;4.40;;
25341;SDS011;13298;48.792;9.154;2023-08-12T07:32:40;5.30;;;4.20;;
25341;SDS011;13298;48.792;9.154;2023-08-12T07:35:06;5.13;;;4.22;;
25341;SDS011;13298;48.792;9.154;2023-08-12T07:37:32;4.60;;;3.92;;
25341;SDS011;13298;48.792;9.154;2023-08-12T07:39:58;4.28;;;3.72;;
25341;SDS011;13298;48.792;9.154;2023-08-12T07:42:24;5.78;;;4.43;;
25341;SDS011;13298;48.792;9.154;2023-08-12T07:44:50;4.43;;;3.90;;
25341;SDS011;13298;48.792;9.154;2023-08-12T07:47:15;5.13;;;4.40;;
25341;SDS011;13298;48.792;9.154;2023-08-12T07:49:42;5.63;;;4.30;;
25341;SDS011;13298;48.792;9.154;2023-08-12T07:52:08;4.28;;;3.88;;
25341;SDS011;13298;48.792;9.154;2023-08-12T07:54:34;6.57;;;4.00;;
25341;SDS011;13298;48.792;9.154;2023-08-12T07:57:00;5.60;;;4.05;;
25341;SDS011;13298;48.792;9.154;2023-08-12T07:59:26;4.93;;;4.18;;
25341;SDS011;13298;48.792;9.154;2023-08-12T08:01:52;5.47;;;3.63;;
25341;SDS011;13298;48.792;9.154;2023-08-12T08:04:17;6.10;;;4.68;;
25341;SDS011;13298;48.792;9.154;2023-08-12T08:06:43;5.38;;;3.90;;
25341;SDS011;13298;48.792;9.154;2023-08-12T08:09:09;5.15;;;4.20;;
25341;SDS011;13298;48.792;9.154;2023-08-12T08:11:35;7.57;;;4.03;;
25341;SDS011;13298;48.792;9.154;2023-08-12T08:14:01;4.88;;;3.78;;
25341;SDS011;13298;48.792;9.154;2023-08-12T08:16:27;4.90;;;4.50;;
25341;SDS011;13298;48.792;9.154;2023-08-12T08:18:53;6.18;;;4.38;;
25341;SDS011;13298;48.792;9.154;2023-08-12T08:21:19;6.85;;;4.53;;
25341;SDS011;13298;48.792;9.154;2023-08-12T08:23:45;5.43;;;4.47;;
25341;SDS011;13298;48.792;9.154;2023-08-12T08:26:11;5.13;;;4.53;;
25341;SDS011;13298;48.792;9.154;2023-08-12T08:28:38;6.07;;;4.32;;
25341;SDS011;13298;48.792;9.154;2023-08-12T08:31:04;5.40;;;4.53;;
25341;SDS011;13298;48.792;9.154;2023-08-12T08:33:29;6.53;;;4.20;;
25341;SDS011;13298;48.792;9.154;2023-08-12T08:35:55;5.13;;;4.35;;
25341;SDS011;13298;48.792;9.154;2023-08-12T08:38:21;5.55;;;4.90;;
25341;SDS011;13298;48.792;9.154;2023-08-12T08:40:48;5.72;;;4.75;;
25341;SDS011;13298;48.792;9.154;2023-08-12T08:43:15;4.68;;;4.28;;
25341;SDS011;13298;48.792;9.154;2023-08-12T08:45:47;5.30;;;4.57;;
25341;SDS011;13298;48.792;9.154;2023-08-12T08:48:17;5.20;;;4.70;;
25341;SDS011;13298;48.792;9.154;2023-08-12T08:50:44;6.45;;;4.82;;
25341;SDS011;13298;48.792;9.154;2023-08-12T08:53:11;5.03;;;4.53;;
25341;SDS011;13298;48.792;9.154;2023-08-12T08:55:38;5.68;;;4.20;;
25341;SDS011;13298;48.792;9.154;2023-08-12T08:58:06;7.03;;;4.63;;
25341;SDS011;13298;48.792;9.154;2023-08-12T09:00:31;4.93;;;4.15;;
25341;SDS011;13298;48.792;9.154;2023-08-12T09:02:57;6.55;;;4.72;;
25341;SDS011;13298;48.792;9.154;2023-08-12T09:05:24;6.18;;;4.78;;
25341;SDS011;13298;48.792;9.154;2023-08-12T09:07:51;5.78;;;4.82;;
25341;SDS011;13298;48.792;9.154;2023-08-12T09:10:20;4.93;;;4.43;;
25341;SDS011;13298;48.792;9.154;2023-08-12T09:12:46;6.05;;;3.85;;
25341;SDS011;13298;48.792;9.154;2023-08-12T09:15:12;4.40;;;3.85;;
25341;SDS011;13298;48.792;9.154;2023-08-12T09:17:38;5.28;;;4.10;;
25341;SDS011;13298;48.792;9.154;2023-08-12T09:20:04;5.50;;;4.45;;
25341;SDS011;13298;48.792;9.154;2023-08-12T09:22:36;6.97;;;4.45;;
25341;SDS011;13298;48.792;9.154;2023-08-12T09:25:03;10.93;;;6.40;;
25341;SDS011;13298;48.792;9.154;2023-08-12T09:27:30;10.40;;;6.55;;
25341;SDS011;13298;48.792;9.154;2023-08-12T09:29:56;6.72;;;4.80;;
25341;SDS011;13298;48.792;9.154;2023-08-12T09:32:23;6.03;;;4.50;;
25341;SDS011;13298;48.792;9.154;2023-08-12T09:34:50;5.75;;;4.10;;
25341;SDS011;13298;48.792;9.154;2023-08-12T09:37:18;7.22;;;5.53;;
25341;SDS011;13298;48.792;9.154;2023-08-12T09:39:46;5.95;;;4.60;;
25341;SDS011;13298;48.792;9.154;2023-08-12T09:42:13;6.57;;;4.45;;
25341;SDS011;13298;48.792;9.154;2023-08-12T09:44:41;7.68;;;4.68;;
25341;SDS011;13298;48.792;9.154;2023-08-12T09:47:07;6.85;;;4.55;;
25341;SDS011;13298;48.792;9.154;2023-08-12T09:49:34;7.10;;;4.28;;
25341;SDS011;13298;48.792;9.154;2023-08-12T09:52:00;5.78;;;3.72;;
25341;SDS011;13298;48.792;9.154;2023-08-12T09:54:28;6.20;;;3.95;;
25341;SDS011;13298;48.792;9.154;2023-08-12T09:56:57;6.03;;;3.45;;
25341;SDS011;13298;48.792;9.154;2023-08-12T09:59:27;3.92;;;3.47;;
25341;SDS011;13298;48.792;9.154;2023-08-12T10:02:00;4.65;;;3.50;;
25341;SDS011;13298;48.792;9.154;2023-08-12T10:04:39;6.30;;;3.90;;
25341;SDS011;13298;48.792;9.154;2023-08-12T10:07:10;6.55;;;3.90;;
25341;SDS011;13298;48.792;9.154;2023-08-12T10:09:38;4.20;;;3.20;;
25341;SDS011;13298;48.792;9.154;2023-08-12T10:12:05;5.57;;;3.63;;
25341;SDS011;13298;48.792;9.154;2023-08-12T10:14:32;4.18;;;3.10;;
25341;SDS011;13298;48.792;9.154;2023-08-12T10:16:58;4.32;;;3.08;;
25341;SDS011;13298;48.792;9.154;2023-08-12T10:19:24;2.97;;;2.67;;
25341;SDS011;13298;48.792;9.154;2023-08-12T10:21:53;3.60;;;2.90;;
25341;SDS011;13298;48.792;9.154;2023-08-12T10:24:22;4.47;;;3.10;;
25341;SDS011;13298;48.792;9.154;2023-08-12T10:26:51;4.57;;;3.20;;
25341;SDS011;13298;48.792;9.154;2023-08-12T10:29:17;5.18;;;3.10;;
25341;SDS011;13298;48.792;9.154;2023-08-12T10:31:45;4.28;;;3.00;;
25341;SDS011;13298;48.792;9.154;2023-08-12T10:34:18;5.25;;;2.97;;
25341;SDS011;13298;48.792;9.154;2023-08-12T10:36:55;5.45;;;2.90;;
25341;SDS011;13298;48.792;9.154;2023-08-12T10:39:26;4.65;;;3.40;;
25341;SDS011;13298;48.792;9.154;2023-08-12T10:41:57;4.60;;;3.38;;
25341;SDS011;13298;48.792;9.154;2023-08-12T10:44:39;5.40;;;3.50;;
25341;SDS011;13298;48.792;9.154;2023-08-12T10:49:48;6.28;;;3.47;;
25341;SDS011;13298;48.792;9.154;2023-08-12T10:52:33;5.00;;;3.17;;
25341;SDS011;13298;48.792;9.154;2023-08-12T10:57:52;4.37;;;2.70;;
25341;SDS011;13298;48.792;9.154;2023-08-12T11:00:20;6.97;;;2.92;;
25341;SDS011;13298;48.792;9.154;2023-08-12T11:02:53;4.88;;;3.28;;
25341;SDS011;13298;48.792;9.154;2023-08-12T11:05:21;4.18;;;3.10;;
25341;SDS011;13298;48.792;9.154;2023-08-12T11:10:23;3.70;;;3.25;;
25341;SDS011;13298;48.792;9.154;2023-08-12T11:15:17;7.28;;;3.42;;
25341;SDS011;13298;48.792;9.154;2023-08-12T11:17:45;4.13;;;3.10;;
25341;SDS011;13298;48.792;9.154;2023-08-12T11:20:12;4.90;;;3.10;;
25341;SDS011;13298;48.792;9.154;2023-08-12T11:22:42;5.57;;;3.00;;
25341;SDS011;13298;48.792;9.154;2023-08-12T11:25:12;4.10;;;2.92;;
25341;SDS011;13298;48.792;9.154;2023-08-12T11:27:42;3.55;;;3.25;;
25341;SDS011;13298;48.792;9.154;2023-08-12T11:30:13;4.50;;;3.72;;
25341;SDS011;13298;48.792;9.154;2023-08-12T11:32:45;3.72;;;3.20;;
25341;SDS011;13298;48.792;9.154;2023-08-12T11:35:13;6.47;;;3.72;;
25341;SDS011;13298;48.792;9.154;2023-08-12T11:37:40;4.50;;;3.00;;
25341;SDS011;13298;48.792;9.154;2023-08-12T11:40:10;5.72;;;2.95;;
25341;SDS011;13298;48.792;9.154;2023-08-12T11:42:39;5.00;;;3.40;;
25341;SDS011;13298;48.792;9.154;2023-08-12T11:45:07;5.30;;;3.13;;
25341;SDS011;13298;48.792;9.154;2023-08-12T11:47:34;3.33;;;3.03;;
25341;SDS011;13298;48.792;9.154;2023-08-12T11:50:02;5.85;;;3.30;;
25341;SDS011;13298;48.792;9.154;2023-08-12T11:52:29;4.68;;;3.40;;
25341;SDS011;13298;48.792;9.154;2023-08-12T11:54:55;4.55;;;3.60;;
25341;SDS011;13298;48.792;9.154;2023-08-12T11:57:22;3.67;;;3.20;;
25341;SDS011;13298;48.792;9.154;2023-08-12T11:59:48;7.22;;;3.53;;
25341;SDS011;13298;48.792;9.154;2023-08-12T12:02:15;3.28;;;2.97;;
25341;SDS011;13298;48.792;9.154;2023-08-12T12:04:41;9.07;;;3.95;;
25341;SDS011;13298;48.792;9.154;2023-08-12T12:07:23;5.00;;;3.30;;
25341;SDS011;13298;48.792;9.154;2023-08-12T12:09:51;4.00;;;3.58;;
25341;SDS011;13298;48.792;9.154;2023-08-12T12:12:22;8.38;;;4.32;;
25341;SDS011;13298;48.792;9.154;2023-08-12T12:14:50;5.45;;;4.25;;
25341;SDS011;13298;48.792;9.154;2023-08-12T12:17:18;6.28;;;4.07;;
25341;SDS011;13298;48.792;9.154;2023-08-12T12:19:47;5.47;;;3.67;;
25341;SDS011;13298;48.792;9.154;2023-08-12T12:22:19;4.70;;;3.85;;
25341;SDS011;13298;48.792;9.154;2023-08-12T12:24:46;5.75;;;3.80;;
25341;SDS011;13298;48.792;9.154;2023-08-12T12:27:15;5.38;;;3.30;;
25341;SDS011;13298;48.792;9.154;2023-08-12T12:29:40;6.88;;;3.80;;
25341;SDS011;13298;48.792;9.154;2023-08-12T12:32:06;7.90;;;3.50;;
25341;SDS011;13298;48.792;9.154;2023-08-12T12:34:32;6.43;;;3.67;;
25341;SDS011;13298;48.792;9.154;2023-08-12T12:36:58;5.55;;;3.80;;
25341;SDS011;13298;48.792;9.154;2023-08-12T12:39:24;6.22;;;3.70;;
25341;SDS011;13298;48.792;9.154;2023-08-12T12:41:49;5.40;;;3.45;;
25341;SDS011;13298;48.792;9.154;2023-08-12T12:44:15;5.97;;;3.60;;
25341;SDS011;13298;48.792;9.154;2023-08-12T12:46:41;8.43;;;4.38;;
25341;SDS011;13298;48.792;9.154;2023-08-12T12:49:06;9.13;;;4.32;;
25341;SDS011;13298;48.792;9.154;2023-08-12T12:51:32;6.07;;;3.75;;
25341;SDS011;13298;48.792;9.154;2023-08-12T12:53:58;8.63;;;3.78;;
25341;SDS011;13298;48.792;9.154;2023-08-12T12:56:23;5.60;;;3.58;;
25341;SDS011;13298;48.792;9.154;2023-08-12T12:58:49;4.28;;;2.78;;
25341;SDS011;13298;48.792;9.154;2023-08-12T13:01:15;6.22;;;3.90;;
25341;SDS011;13298;48.792;9.154;2023-08-12T13:03:40;5.57;;;3.80;;
25341;SDS011;13298;48.792;9.154;2023-08-12T13:06:06;5.25;;;4.15;;
25341;SDS011;13298;48.792;9.154;2023-08-12T13:08:32;8.40;;;4.53;;
25341;SDS011;13298;48.792;9.154;2023-08-12T13:10:58;5.70;;;3.97;;
25341;SDS011;13298;48.792;9.154;2023-08-12T13:13:24;5.35;;;4.28;;
25341;SDS011;13298;48.792;9.154;2023-08-12T13:15:50;4.50;;;3.72;;
25341;SDS011;13298;48.792;9.154;2023-08-12T13:18:16;4.93;;;3.53;;
25341;SDS011;13298;48.792;9.154;2023-08-12T13:20:42;4.95;;;3.30;;
25341;SDS011;13298;48.792;9.154;2023-08-12T13:23:08;7.13;;;3.78;;
25341;SDS011;13298;48.792;9.154;2023-08-12T13:25:34;5.65;;;3.63;;
25341;SDS011;13298;48.792;9.154;2023-08-12T13:28:03;5.65;;;3.90;;
25341;SDS011;13298;48.792;9.154;2023-08-12T13:30:29;4.20;;;3.78;;
25341;SDS011;13298;48.792;9.154;2023-08-12T13:32:55;6.85;;;3.65;;
25341;SDS011;13298;48.792;9.154;2023-08-12T13:35:21;5.15;;;4.25;;
25341;SDS011;13298;48.792;9.154;2023-08-12T13:37:48;5.15;;;3.95;;
25341;SDS011;13298;48.792;9.154;2023-08-12T13:40:15;5.15;;;4.10;;
25341;SDS011;13298;48.792;9.154;2023-08-12T13:42:42;4.97;;;3.97;;
25341;SDS011;13298;48.792;9.154;2023-08-12T13:45:08;9.68;;;5.28;;
25341;SDS011;13298;48.792;9.154;2023-08-12T13:47:37;7.20;;;4.90;;
25341;SDS011;13298;48.792;9.154;2023-08-12T13:50:03;6.50;;;4.80;;
25341;SDS011;13298;48.792;9.154;2023-08-12T13:52:29;5.70;;;4.22;;
25341;SDS011;13298;48.792;9.154;2023-08-12T13:54:55;5.45;;;4.78;;
25341;SDS011;13298;48.792;9.154;2023-08-12T13:57:21;8.93;;;5.57;;
25341;SDS011;13298;48.792;9.154;2023-08-12T13:59:47;7.07;;;5.45;;
25341;SDS011;13298;48.792;9.154;2023-08-12T14:02:13;5.65;;;5.00;;
25341;SDS011;13298;48.792;9.154;2023-08-12T14:04:40;6.43;;;4.90;;
25341;SDS011;13298;48.792;9.154;2023-08-12T14:07:05;5.50;;;4.85;;
25341;SDS011;13298;48.792;9.154;2023-08-12T14:09:31;5.80;;;5.07;;
25341;SDS011;13298;48.792;9.154;2023-08-12T14:11:59;7.45;;;4.75;;
25341;SDS011;13298;48.792;9.154;2023-08-12T14:14:25;8.27;;;5.18;;
25341;SDS011;13298;48.792;9.154;2023-08-12T14:16:54;9.45;;;4.75;;
25341;SDS011;13298;48.792;9.154;2023-08-12T14:19:20;8.73;;;5.13;;
25341;SDS011;13298;48.792;9.154;2023-08-12T14:21:46;6.40;;;4.40;;
25341;SDS011;13298;48.792;9.154;2023-08-12T14:24:11;6.00;;;4.47;;
25341;SDS011;13298;48.792;9.154;2023-08-12T14:26:38;7.25;;;4.43;;
25341;SDS011;13298;48.792;9.154;2023-08-12T14:29:04;5.25;;;4.10;;
25341;SDS011;13298;48.792;9.154;2023-08-12T14:31:30;6.18;;;4.43;;
25341;SDS011;13298;48.792;9.154;2023-08-12T14:33:56;5.10;;;3.53;;
25341;SDS011;13298;48.792;9.154;2023-08-12T14:36:21;6.53;;;3.75;;
25341;SDS011;13298;48.792;9.154;2023-08-12T14:38:49;7.70;;;4.10;;
25341;SDS011;13298;48.792;9.154;2023-08-12T14:41:15;4.95;;;3.60;;
25341;SDS011;13298;48.792;9.154;2023-08-12T14:43:41;7.45;;;3.78;;
25341;SDS011;13298;48.792;9.154;2023-08-12T14:46:07;4.95;;;3.83;;
25341;SDS011;13298;48.792;9.154;2023-08-12T14:48:32;6.53;;;3.83;;
25341;SDS011;13298;48.792;9.154;2023-08-12T14:50:58;5.13;;;3.45;;
25341;SDS011;13298;48.792;9.154;2023-08-12T14:53:24;5.90;;;3.80;;
25341;SDS011;13298;48.792;9.154;2023-08-12T14:55:50;4.90;;;3.60;;